Time;durP1;ratioP1;P1;durP2;ratioP2;P2;SDS_P1;SDS_P2;PMS_P1;PMS_P2;Temp;Humidity;BMP_temperature;BMP_pressure;BME280_temperature;BME280_humidity;BME280_pressure;Samples;Min_cycle;Max_cycle;Signal;HPM_P1;HPM_P2
2022/12/07 00:00:00;;;;;;;7.20;4.17;;;1.80;99.90;;;;;;4974541;28;20190;-84
2022/12/07 00:02:26;;;;;;;7.93;3.83;;;2.40;99.90;;;;;;4974821;28;20552;-84
2022/12/07 00:04:52;;;;;;;6.07;4.57;;;3.50;99.90;;;;;;4957542;28;20198;-84
2022/12/07 00:07:18;;;;;;;4.10;3.13;;;2.40;99.90;;;;;;4958275;28;20190;-84
2022/12/07 00:09:44;;;;;;;6.23;3.50;;;;;;;;;;4957531;28;20622;-84
2022/12/07 00:12:09;;;;;;;3.47;3.13;;;1.90;99.90;;;;;;4974863;28;20202;-83
2022/12/07 00:14:35;;;;;;;7.63;4.63;;;3.70;99.90;;;;;;4957317;28;20210;-84
2022/12/07 00:17:00;;;;;;;8.87;4.30;;;1.90;99.90;;;;;;4957147;28;20190;-84
2022/12/07 00:19:26;;;;;;;4.43;3.43;;;4.30;99.90;;;;;;4941547;28;20189;-85
2022/12/07 00:21:52;;;;;;;4.07;3.33;;;1.90;99.90;;;;;;4974163;28;20217;-85
2022/12/07 00:24:17;;;;;;;5.87;4.43;;;3.60;99.90;;;;;;4957598;28;20187;-85
2022/12/07 00:26:44;;;;;;;9.33;4.33;;;2.40;99.90;;;;;;4957828;28;20513;-84
2022/12/07 00:29:21;;;;;;;8.17;5.27;;;4.70;99.90;;;;;;4957745;28;20178;-84
2022/12/07 00:31:47;;;;;;;7.03;3.37;;;1.90;99.90;;;;;;4974270;28;20175;-84
2022/12/07 00:34:19;;;;;;;3.17;2.67;;;1.90;99.90;;;;;;4957244;28;20185;-84
2022/12/07 00:36:46;;;;;;;5.97;2.93;;;3.30;99.90;;;;;;4973232;28;20202;-84
2022/12/07 00:39:11;;;;;;;5.40;3.50;;;2.00;99.90;;;;;;4941173;28;20179;-84
2022/12/07 00:41:37;;;;;;;5.57;3.67;;;3.00;99.90;;;;;;4974444;28;20253;-85
2022/12/07 00:44:03;;;;;;;11.73;5.03;;;2.00;99.90;;;;;;4957144;28;20214;-84
2022/12/07 00:46:29;;;;;;;7.90;3.47;;;2.00;99.90;;;;;;4956965;28;20529;-84
2022/12/07 00:48:54;;;;;;;9.67;5.10;;;2.00;99.90;;;;;;4957241;28;20190;-84
2022/12/07 00:51:22;;;;;;;11.73;4.40;;;3.90;99.90;;;;;;4974569;28;20195;-84
2022/12/07 00:53:48;;;;;;;8.90;6.87;;;3.20;99.90;;;;;;4974370;28;20182;-84
2022/12/07 00:56:17;;;;;;;5.60;4.87;;;2.10;99.90;;;;;;4974127;28;20230;-84
2022/12/07 00:58:43;;;;;;;5.73;4.27;;;3.40;99.90;;;;;;4956853;28;20181;-84
2022/12/07 01:01:10;;;;;;;5.53;2.97;;;2.70;99.90;;;;;;4974371;28;20238;-84
2022/12/07 01:03:37;;;;;;;10.13;5.13;;;2.10;99.90;;;;;;4974285;28;20257;-85
2022/12/07 01:06:03;;;;;;;7.97;3.90;;;2.30;99.90;;;;;;4963075;28;20241;-84
2022/12/07 01:08:30;;;;;;;11.80;5.57;;;2.10;99.90;;;;;;4963447;28;20181;-85
2022/12/07 01:11:05;;;;;;;6.70;3.90;;;3.60;99.90;;;;;;4980898;28;20644;-84
2022/12/07 01:13:33;;;;;;;3.50;2.70;;;2.20;99.90;;;;;;4980508;28;20650;-85
2022/12/07 01:16:00;;;;;;;9.07;5.73;;;2.20;99.90;;;;;;4980862;28;20179;-84
2022/12/07 01:18:30;;;;;;;6.53;4.47;;;4.20;99.90;;;;;;4980634;28;20179;-84
2022/12/07 01:21:09;;;;;;;4.63;3.23;;;2.20;99.90;;;;;;4980887;28;20228;-84
2022/12/07 01:23:35;;;;;;;6.80;4.37;;;2.20;99.90;;;;;;4980876;28;20623;-84
2022/12/07 01:26:05;;;;;;;6.63;3.43;;;2.30;99.90;;;;;;4963437;28;20540;-84
2022/12/07 01:28:31;;;;;;;3.07;2.63;;;2.20;99.90;;;;;;4980478;28;20259;-85
2022/12/07 01:31:02;;;;;;;6.30;4.40;;;4.00;99.90;;;;;;4980703;28;20242;-84
2022/12/07 01:33:30;;;;;;;3.93;3.47;;;2.20;99.90;;;;;;4980665;28;20194;-85
2022/12/07 01:36:20;;;;;;;11.73;4.03;;;2.30;99.90;;;;;;4962977;28;20202;-85
2022/12/07 01:38:47;;;;;;;3.57;3.27;;;2.10;99.90;;;;;;4963297;28;20175;-85
2022/12/07 01:41:14;;;;;;;4.20;3.80;;;3.70;99.90;;;;;;4963285;28;20294;-84
2022/12/07 01:44:08;;;;;;;5.83;5.20;;;2.50;99.90;;;;;;4980025;28;20205;-84
2022/12/07 01:46:33;;;;;;;3.83;3.47;;;2.20;99.90;;;;;;4980145;28;20201;-85
2022/12/07 01:49:00;;;;;;;4.77;3.10;;;2.20;99.90;;;;;;4963125;28;20664;-84
2022/12/07 01:51:26;;;;;;;3.93;3.47;;;4.00;99.90;;;;;;4980179;28;20179;-84
2022/12/07 01:53:52;;;;;;;4.80;3.27;;;3.00;99.90;;;;;;4980246;28;20209;-84
2022/12/07 01:56:24;;;;;;;5.10;3.07;;;2.10;99.90;;;;;;4962982;28;20269;-84
2022/12/07 01:58:50;;;;;;;6.70;3.80;;;;;;;;;;4980201;28;20640;-84
2022/12/07 02:01:16;;;;;;;4.73;3.33;;;2.20;99.90;;;;;;4980201;28;20287;-84
2022/12/07 02:03:44;;;;;;;2.77;2.57;;;2.20;99.90;;;;;;4963089;28;20189;-84
2022/12/07 02:06:12;;;;;;;7.13;3.93;;;3.10;99.90;;;;;;4980360;28;20192;-84
2022/12/07 02:08:38;;;;;;;8.87;3.43;;;4.20;99.90;;;;;;4979885;28;20241;-84
2022/12/07 02:11:05;;;;;;;6.13;3.13;;;2.20;99.90;;;;;;4980381;28;20262;-84
2022/12/07 02:13:34;;;;;;;3.33;2.87;;;2.60;99.90;;;;;;4980672;28;20177;-84
2022/12/07 02:16:57;;;;;;;3.27;3.00;;;4.30;99.90;;;;;;4978370;28;20267;-84
2022/12/07 02:19:31;;;;;;;2.73;2.27;;;2.20;99.90;;;;;;4923807;28;20246;-84
2022/12/07 02:22:23;;;;;;;3.07;2.70;;;2.20;99.90;;;;;;4959615;28;20208;-84
2022/12/07 02:25:03;;;;;;;4.33;3.40;;;2.20;99.90;;;;;;4933495;28;20663;-84
2022/12/07 02:28:00;;;;;;;2.70;2.47;;;2.30;99.90;;;;;;4977251;28;20194;-84
2022/12/07 02:30:30;;;;;;;3.83;3.10;;;2.20;99.90;;;;;;4959664;28;20189;-84
2022/12/07 02:33:04;;;;;;;2.53;2.03;;;3.90;99.90;;;;;;4976691;28;20198;-84
2022/12/07 02:35:54;;;;;;;1.97;1.87;;;3.30;99.90;;;;;;4976972;28;20203;-84
2022/12/07 02:38:26;;;;;;;6.67;3.43;;;2.20;99.90;;;;;;4976976;28;20224;-84
2022/12/07 02:41:13;;;;;;;1.50;1.43;;;2.30;99.90;;;;;;4976459;28;20196;-85
2022/12/07 02:43:47;;;;;;;2.27;1.73;;;3.10;99.90;;;;;;4975404;28;20277;-85
2022/12/07 02:46:24;;;;;;;2.00;1.60;;;3.00;99.90;;;;;;4976657;28;20169;-84
2022/12/07 02:48:51;;;;;;;10.33;2.10;;;2.20;99.90;;;;;;4976494;28;20170;-84
2022/12/07 02:51:18;;;;;;;1.73;1.67;;;2.90;99.90;;;;;;4976353;28;20179;-84
2022/12/07 02:53:44;;;;;;;1.73;1.63;;;;;;;;;;4958813;28;20228;-85
2022/12/07 02:56:35;;;;;;;3.53;1.90;;;2.10;99.90;;;;;;4976671;28;20592;-85
2022/12/07 02:59:35;;;;;;;1.67;1.57;;;2.10;99.90;;;;;;4976715;28;20264;-85
2022/12/07 03:02:19;;;;;;;1.50;1.47;;;2.20;99.90;;;;;;4931024;28;20226;-85
2022/12/07 03:04:54;;;;;;;2.07;1.87;;;2.20;99.90;;;;;;4981814;28;20190;-84
2022/12/07 03:07:37;;;;;;;1.70;1.60;;;2.20;99.90;;;;;;4964691;28;20188;-84
2022/12/07 03:10:21;;;;;;;2.10;1.90;;;2.10;99.90;;;;;;4965735;28;20180;-84
2022/12/07 03:13:33;;;;;;;2.07;1.93;;;3.40;99.90;;;;;;4970871;28;20166;-85
2022/12/07 03:16:25;;;;;;;1.73;1.63;;;2.10;99.90;;;;;;5000371;28;20155;-84
2022/12/07 03:19:01;;;;;;;3.13;1.60;;;2.10;99.90;;;;;;5000263;28;20167;-85
2022/12/07 03:21:39;;;;;;;1.60;1.40;;;2.60;99.90;;;;;;5000345;28;20195;-84
2022/12/07 03:24:15;;;;;;;3.27;1.90;;;2.10;99.90;;;;;;4972887;28;20163;-84
2022/12/07 03:26:46;;;;;;;1.63;1.53;;;2.10;99.90;;;;;;4983853;28;20176;-84
2022/12/07 03:29:19;;;;;;;4.73;2.07;;;2.10;99.90;;;;;;4991832;28;20151;-84
2022/12/07 03:31:51;;;;;;;1.77;1.67;;;2.10;99.90;;;;;;4999996;28;20159;-85
2022/12/07 03:34:24;;;;;;;1.47;1.37;;;3.70;99.90;;;;;;4983520;28;20170;-83
2022/12/07 03:37:08;;;;;;;1.70;1.60;;;2.00;99.90;;;;;;4997568;28;20180;-84
2022/12/07 03:39:36;;;;;;;1.90;1.80;;;2.50;99.90;;;;;;4959309;28;20188;-84
2022/12/07 03:42:04;;;;;;;1.30;1.27;;;2.60;99.90;;;;;;4959943;28;20210;-84
2022/12/07 03:44:31;;;;;;;1.13;1.00;;;1.90;99.90;;;;;;4959479;28;20655;-84
2022/12/07 03:47:03;;;;;;;2.97;1.87;;;3.60;99.90;;;;;;4960168;28;20186;-84
2022/12/07 03:49:41;;;;;;;0.90;0.90;;;3.90;99.90;;;;;;4959548;28;20277;-84
2022/12/07 03:52:40;;;;;;;1.30;1.20;;;1.70;99.90;;;;;;4977413;28;20197;-84
2022/12/07 03:55:10;;;;;;;1.93;1.37;;;1.60;99.90;;;;;;4976263;28;20238;-83
2022/12/07 03:57:39;;;;;;;2.13;1.97;;;1.50;99.90;;;;;;4976549;28;20206;-84
2022/12/07 04:00:07;;;;;;;1.83;1.50;;;1.50;99.90;;;;;;4959115;28;20186;-83
2022/12/07 04:02:34;;;;;;;2.97;2.43;;;1.40;99.90;;;;;;4976341;28;20201;-83
2022/12/07 04:04:59;;;;;;;1.80;1.70;;;2.90;99.90;;;;;;4976433;28;20167;-84
2022/12/07 04:07:25;;;;;;;1.70;1.10;;;1.30;99.90;;;;;;4962072;28;20238;-84
2022/12/07 04:09:51;;;;;;;1.27;1.10;;;2.10;99.90;;;;;;4984759;28;20185;-83
2022/12/07 04:12:17;;;;;;;1.50;1.40;;;1.20;99.90;;;;;;4987327;28;20179;-84
2022/12/07 04:14:42;;;;;;;1.30;1.20;;;2.40;99.90;;;;;;4983555;28;20175;-83
2022/12/07 04:17:08;;;;;;;1.50;1.40;;;1.30;99.90;;;;;;4977088;28;20188;-84
2022/12/07 04:19:34;;;;;;;1.93;1.83;;;0.90;99.90;;;;;;4959619;28;20655;-84
2022/12/07 04:22:02;;;;;;;1.10;1.07;;;1.00;99.90;;;;;;4980909;28;20206;-84
2022/12/07 04:24:28;;;;;;;1.50;1.40;;;2.00;99.90;;;;;;4985970;28;20276;-84
2022/12/07 04:26:53;;;;;;;1.87;1.77;;;1.00;99.90;;;;;;4970786;28;20221;-84
2022/12/07 04:29:19;;;;;;;2.07;1.93;;;1.00;99.90;;;;;;4989253;28;20175;-84
2022/12/07 04:31:45;;;;;;;1.17;1.13;;;1.00;99.90;;;;;;4975589;28;20219;-84
2022/12/07 04:34:12;;;;;;;2.13;1.93;;;0.90;99.90;;;;;;4968034;28;20635;-85
2022/12/07 04:36:38;;;;;;;1.70;1.60;;;;;;;;;;4972501;28;20675;-84
2022/12/07 04:39:05;;;;;;;1.73;1.63;;;2.50;99.90;;;;;;4974364;28;20229;-84
2022/12/07 04:41:31;;;;;;;0.90;0.90;;;1.00;99.90;;;;;;4974641;28;20199;-83
2022/12/07 04:43:59;;;;;;;1.57;1.47;;;2.80;99.90;;;;;;4974418;28;20225;-84
2022/12/07 04:46:26;;;;;;;1.07;1.07;;;2.90;99.90;;;;;;4974562;28;20210;-84
2022/12/07 04:48:53;;;;;;;1.00;1.00;;;3.00;99.90;;;;;;4973838;28;20563;-84
2022/12/07 04:51:21;;;;;;;1.63;1.53;;;0.80;99.90;;;;;;4941311;28;20557;-84
2022/12/07 04:53:47;;;;;;;1.33;1.30;;;;;;;;;;4973403;28;20262;-84
2022/12/07 04:56:14;;;;;;;1.43;1.37;;;0.80;99.90;;;;;;4974105;28;20279;-84
2022/12/07 04:58:40;;;;;;;1.40;1.30;;;2.80;99.90;;;;;;4957241;28;20221;-84
2022/12/07 05:01:06;;;;;;;1.70;1.23;;;0.80;99.90;;;;;;4956636;28;20221;-84
2022/12/07 05:03:32;;;;;;;4.13;1.57;;;;;;;;;;4941104;28;20187;-84
2022/12/07 05:05:58;;;;;;;2.50;2.30;;;0.80;99.90;;;;;;4956830;28;20191;-84
2022/12/07 05:08:24;;;;;;;2.23;2.03;;;2.50;99.90;;;;;;4952236;28;20205;-84
2022/12/07 05:10:50;;;;;;;3.00;1.90;;;2.60;99.90;;;;;;4957557;28;20209;-84
2022/12/07 05:13:15;;;;;;;1.17;1.10;;;2.30;99.90;;;;;;4954609;29;20191;-84
2022/12/07 05:15:43;;;;;;;1.13;1.13;;;2.80;99.90;;;;;;4937775;29;20195;-83
2022/12/07 05:18:11;;;;;;;2.03;1.93;;;2.00;99.90;;;;;;4958666;28;20182;-83
2022/12/07 05:20:38;;;;;;;2.30;2.10;;;0.90;99.90;;;;;;4971082;28;20206;-83
2022/12/07 05:23:04;;;;;;;1.67;1.57;;;2.40;99.90;;;;;;4960389;28;20621;-84
2022/12/07 05:25:29;;;;;;;2.47;2.27;;;1.80;99.90;;;;;;4954983;29;20266;-83
2022/12/07 05:27:56;;;;;;;1.53;1.43;;;1.70;99.90;;;;;;4921856;29;20230;-84
2022/12/07 05:30:22;;;;;;;1.83;1.73;;;2.40;99.90;;;;;;4937651;29;20216;-83
2022/12/07 05:32:47;;;;;;;0.93;0.93;;;0.90;99.90;;;;;;4955650;28;21190;-84
2022/12/07 05:35:13;;;;;;;2.40;2.20;;;;;;;;;;4950810;28;20174;-83
2022/12/07 05:37:39;;;;;;;1.20;1.20;;;0.90;99.90;;;;;;4955782;28;20183;-83
2022/12/07 05:40:07;;;;;;;2.30;1.53;;;3.50;99.90;;;;;;4969335;28;20191;-83
2022/12/07 05:42:33;;;;;;;1.10;1.10;;;;;;;;;;4961116;28;20218;-82
2022/12/07 05:44:59;;;;;;;2.93;1.70;;;;;;;;;;4936324;28;20211;-83
2022/12/07 05:47:24;;;;;;;1.60;1.50;;;1.00;99.90;;;;;;4963612;28;20195;-82
2022/12/07 05:49:50;;;;;;;2.27;2.07;;;;;;;;;;4962053;28;20266;-83
2022/12/07 05:52:16;;;;;;;2.67;2.47;;;1.00;99.90;;;;;;4969080;28;20179;-83
2022/12/07 05:54:42;;;;;;;1.73;1.63;;;1.50;99.90;;;;;;4972193;28;20194;-83
2022/12/07 05:57:08;;;;;;;1.77;1.67;;;3.70;99.90;;;;;;4972207;28;20261;-83
2022/12/07 05:59:33;;;;;;;1.60;1.50;;;3.10;99.90;;;;;;4957760;28;20186;-83
2022/12/07 06:02:01;;;;;;;1.93;1.73;;;2.30;99.90;;;;;;4959033;28;20727;-84
2022/12/07 06:04:33;;;;;;;4.27;1.47;;;3.10;99.90;;;;;;4948693;29;20190;-83
2022/12/07 06:06:59;;;;;;;1.90;1.80;;;1.00;99.90;;;;;;4971780;28;20178;-84
2022/12/07 06:09:27;;;;;;;1.03;1.03;;;1.00;99.90;;;;;;4976917;28;20189;-83
2022/12/07 06:14:38;;;;;;;2.17;2.07;;;;;;;;;;4976667;28;20174;-84
2022/12/07 06:17:04;;;;;;;2.37;1.60;;;1.10;99.90;;;;;;4957930;28;20186;-83
2022/12/07 06:19:30;;;;;;;1.87;1.77;;;1.10;99.90;;;;;;4965629;28;20188;-85
2022/12/07 06:21:56;;;;;;;1.93;1.80;;;1.70;99.90;;;;;;4946282;29;20211;-82
2022/12/07 06:24:22;;;;;;;1.90;1.80;;;1.30;99.90;;;;;;4939989;29;20195;-81
2022/12/07 06:26:48;;;;;;;1.93;1.83;;;;;;;;;;4958842;28;20615;-85
2022/12/07 06:29:14;;;;;;;1.00;1.00;;;;;;;;;;4956694;29;20266;-84
2022/12/07 06:31:41;;;;;;;2.40;2.20;;;;;;;;;;4956886;29;20223;-84
2022/12/07 06:34:10;;;;;;;1.40;1.30;;;1.20;99.90;;;;;;4956987;29;20194;-85
2022/12/07 06:36:35;;;;;;;1.67;1.47;;;3.70;99.90;;;;;;4957122;29;20183;-83
2022/12/07 06:39:03;;;;;;;1.63;1.10;;;1.60;99.90;;;;;;4956752;29;20179;-84
2022/12/07 06:41:29;;;;;;;1.77;1.67;;;1.80;99.90;;;;;;4939871;29;20214;-84
2022/12/07 06:43:54;;;;;;;1.00;1.00;;;1.50;99.90;;;;;;4956691;29;20719;-84
2022/12/07 06:46:20;;;;;;;0.93;0.93;;;2.70;99.90;;;;;;4956920;29;20185;-84
2022/12/07 06:48:46;;;;;;;2.77;2.57;;;3.40;99.90;;;;;;4923674;29;20633;-84
2022/12/07 06:51:11;;;;;;;1.63;1.53;;;2.80;99.90;;;;;;4938981;29;20659;-85
2022/12/07 06:53:37;;;;;;;1.03;1.03;;;1.70;99.90;;;;;;4956614;29;20180;-84
2022/12/07 06:56:04;;;;;;;1.00;1.00;;;1.20;99.90;;;;;;4956369;29;20259;-83
2022/12/07 06:58:30;;;;;;;1.60;1.50;;;;;;;;;;4923305;29;20179;-82
2022/12/07 07:00:56;;;;;;;1.93;1.83;;;1.20;99.90;;;;;;4942004;28;20204;-84
2022/12/07 07:03:22;;;;;;;6.43;4.07;;;4.00;99.90;;;;;;4951694;28;20242;-83
2022/12/07 07:05:48;;;;;;;2.67;2.53;;;2.70;99.90;;;;;;4958907;28;20642;-84
2022/12/07 07:08:14;;;;;;;1.03;1.03;;;;;;;;;;4969024;28;20183;-84
2022/12/07 07:10:40;;;;;;;2.20;2.10;;;1.30;99.90;;;;;;4956483;28;20613;-84
2022/12/07 07:13:06;;;;;;;2.20;2.00;;;2.90;99.90;;;;;;4965931;28;20182;-82
2022/12/07 07:15:33;;;;;;;1.33;1.33;;;1.20;99.90;;;;;;4975792;28;20224;-83
2022/12/07 07:17:59;;;;;;;1.57;1.47;;;3.00;99.90;;;;;;4975572;28;20188;-83
2022/12/07 07:20:25;;;;;;;1.43;1.43;;;;;;;;;;4975414;28;20182;-83
2022/12/07 07:22:53;;;;;;;2.80;1.57;;;1.20;99.90;;;;;;4963493;28;20250;-83
2022/12/07 07:25:19;;;;;;;4.77;2.37;;;;;;;;;;4955981;29;20194;-83
2022/12/07 07:27:45;;;;;;;1.40;1.30;;;1.20;99.90;;;;;;4956073;29;20666;-84
2022/12/07 07:30:11;;;;;;;1.80;1.70;;;1.20;99.90;;;;;;4955902;29;20183;-83
2022/12/07 07:32:37;;;;;;;1.70;1.27;;;;;;;;;;4923012;29;20212;-83
2022/12/07 07:35:03;;;;;;;2.00;1.83;;;;;;;;;;4956037;29;20254;-83
2022/12/07 07:37:29;;;;;;;2.30;2.20;;;1.20;99.90;;;;;;4955670;29;20203;-83
2022/12/07 07:39:54;;;;;;;13.90;2.40;;;1.70;99.90;;;;;;4955687;29;20218;-83
2022/12/07 07:42:20;;;;;;;3.80;2.30;;;1.20;99.90;;;;;;4943184;28;20668;-84
2022/12/07 07:44:46;;;;;;;3.90;2.33;;;3.50;99.90;;;;;;4967483;28;20602;-83
2022/12/07 07:47:11;;;;;;;3.00;2.80;;;1.20;99.90;;;;;;4950846;28;20189;-83
2022/12/07 07:49:37;;;;;;;1.77;1.67;;;3.80;99.90;;;;;;4975002;28;20184;-84
2022/12/07 07:52:04;;;;;;;1.63;1.57;;;1.30;99.90;;;;;;4975101;28;20200;-84
2022/12/07 07:54:30;;;;;;;2.17;1.97;;;1.10;99.90;;;;;;4957443;28;20321;-83
2022/12/07 07:56:56;;;;;;;1.60;1.37;;;;;;;;;;4974819;28;20719;-83
2022/12/07 07:59:22;;;;;;;2.60;2.10;;;1.10;99.90;;;;;;4974627;28;20182;-83
2022/12/07 08:01:48;;;;;;;2.93;2.20;;;1.10;99.90;;;;;;4958272;28;20224;-84
2022/12/07 08:04:13;;;;;;;1.83;1.73;;;1.10;99.90;;;;;;4974620;28;20550;-84
2022/12/07 08:06:39;;;;;;;7.30;2.73;;;3.00;99.90;;;;;;4958068;28;20193;-84
2022/12/07 08:09:06;;;;;;;2.17;1.93;;;;;;;;;;4957847;28;20632;-86
2022/12/07 08:11:32;;;;;;;5.27;2.10;;;;;;;;;;4957779;28;20182;-84
2022/12/07 08:13:58;;;;;;;4.67;2.37;;;1.10;99.90;;;;;;4956392;28;20179;-85
2022/12/07 08:16:23;;;;;;;1.80;1.30;;;2.70;99.90;;;;;;4958065;28;20225;-84
2022/12/07 08:18:49;;;;;;;3.40;3.10;;;1.80;99.90;;;;;;4957374;28;20628;-83
2022/12/07 08:21:15;;;;;;;2.07;1.90;;;1.20;99.90;;;;;;4974766;28;20288;-83
2022/12/07 08:23:41;;;;;;;1.50;1.40;;;1.20;99.90;;;;;;4954022;28;20190;-85
2022/12/07 08:26:10;;;;;;;1.43;1.33;;;1.20;99.90;;;;;;4952671;28;20194;-84
2022/12/07 08:28:36;;;;;;;3.73;3.10;;;1.60;99.90;;;;;;4965634;28;20183;-84
2022/12/07 08:31:07;;;;;;;1.80;1.70;;;1.20;99.90;;;;;;4979962;28;20195;-85
2022/12/07 08:33:33;;;;;;;3.27;2.73;;;1.20;99.90;;;;;;4947331;29;20207;-84
2022/12/07 08:36:07;;;;;;;1.20;1.17;;;3.20;99.90;;;;;;4974164;28;20213;-84
2022/12/07 08:38:35;;;;;;;3.73;1.67;;;1.20;99.90;;;;;;4968137;28;20177;-84
2022/12/07 08:41:01;;;;;;;1.57;1.47;;;;;;;;;;4971791;28;20215;-84
2022/12/07 08:43:26;;;;;;;3.03;2.33;;;1.20;99.90;;;;;;4945445;29;20196;-85
2022/12/07 08:46:05;;;;;;;2.97;2.20;;;3.40;99.90;;;;;;4930681;29;20267;-85
2022/12/07 08:48:32;;;;;;;2.67;1.87;;;1.20;99.90;;;;;;4947085;29;20184;-84
2022/12/07 08:50:59;;;;;;;1.97;1.87;;;;;;;;;;4954051;28;20200;-84
2022/12/07 08:53:24;;;;;;;1.40;1.30;;;1.30;99.90;;;;;;4937480;28;20201;-84
2022/12/07 08:55:50;;;;;;;1.57;1.47;;;1.20;99.90;;;;;;4951197;28;20241;-84
2022/12/07 08:58:16;;;;;;;1.73;1.63;;;1.10;99.90;;;;;;4969817;28;20250;-86
2022/12/07 09:00:42;;;;;;;3.70;1.83;;;2.10;99.90;;;;;;4952710;28;20534;-85
2022/12/07 09:03:08;;;;;;;2.77;1.93;;;;;;;;;;4968201;28;20190;-85
2022/12/07 09:05:34;;;;;;;3.13;1.63;;;1.10;99.90;;;;;;4964992;28;20682;-84
2022/12/07 09:08:01;;;;;;;2.53;2.33;;;1.90;99.90;;;;;;4971763;28;20193;-85
2022/12/07 09:10:28;;;;;;;2.70;2.30;;;1.00;99.90;;;;;;4956992;28;20225;-85
2022/12/07 09:12:54;;;;;;;1.60;1.50;;;;;;;;;;4955090;28;20222;-85
2022/12/07 09:15:20;;;;;;;2.23;2.03;;;;;;;;;;4965766;28;20174;-85
2022/12/07 09:17:46;;;;;;;3.10;2.10;;;1.00;99.90;;;;;;4947752;28;20212;-85
2022/12/07 09:20:12;;;;;;;2.60;2.40;;;1.00;99.90;;;;;;4947415;28;20211;-87
2022/12/07 09:22:38;;;;;;;2.23;1.97;;;;;;;;;;4950945;28;20249;-85
2022/12/07 09:25:04;;;;;;;2.17;1.73;;;1.00;99.90;;;;;;4964671;28;20258;-84
2022/12/07 09:27:31;;;;;;;2.27;2.10;;;1.00;99.90;;;;;;4951798;28;20193;-85
2022/12/07 09:29:57;;;;;;;2.13;1.33;;;;;;;;;;4944049;29;20186;-85
2022/12/07 09:32:24;;;;;;;2.30;2.00;;;;;;;;;;4950229;28;20233;-85
2022/12/07 09:34:49;;;;;;;2.60;2.40;;;1.10;99.90;;;;;;4966878;28;20199;-85
2022/12/07 09:37:15;;;;;;;2.33;1.83;;;1.00;99.90;;;;;;4941920;28;20241;-84
2022/12/07 09:39:41;;;;;;;3.47;2.00;;;1.10;99.90;;;;;;4967699;28;20190;-85
2022/12/07 09:42:08;;;;;;;2.23;2.13;;;1.20;99.90;;;;;;4976094;28;20225;-85
2022/12/07 09:44:35;;;;;;;4.83;3.33;;;1.20;99.90;;;;;;4971950;28;20235;-85
2022/12/07 09:47:01;;;;;;;1.50;1.40;;;;;;;;;;4985369;28;20201;-85
2022/12/07 09:49:32;;;;;;;6.40;2.73;;;1.20;99.90;;;;;;4974311;28;20179;-84
2022/12/07 09:52:12;;;;;;;5.70;3.13;;;1.20;99.90;;;;;;4976807;28;20183;-84
2022/12/07 09:54:43;;;;;;;18.33;3.73;;;1.20;99.90;;;;;;4958883;28;20191;-85
2022/12/07 09:57:12;;;;;;;6.90;3.00;;;2.10;99.90;;;;;;4973594;28;20221;-84
2022/12/07 09:59:38;;;;;;;2.77;2.57;;;3.00;99.90;;;;;;4990658;28;20194;-85
2022/12/07 10:02:35;;;;;;;5.30;3.10;;;1.30;99.90;;;;;;4990567;28;20198;-83
2022/12/07 10:05:01;;;;;;;1.60;1.60;;;;;;;;;;4951254;28;20179;-84
2022/12/07 10:07:27;;;;;;;3.17;2.97;;;1.30;99.90;;;;;;4950696;28;20294;-84
2022/12/07 10:09:52;;;;;;;5.33;3.37;;;3.80;99.90;;;;;;4933858;28;20265;-84
2022/12/07 10:12:18;;;;;;;2.00;1.83;;;2.80;99.90;;;;;;4935842;28;20625;-84
2022/12/07 10:15:02;;;;;;;2.90;2.10;;;1.30;99.90;;;;;;4969913;28;20192;-84
2022/12/07 10:17:31;;;;;;;2.30;2.10;;;2.10;99.90;;;;;;4952132;28;20225;-85
2022/12/07 10:20:11;;;;;;;1.40;1.30;;;1.30;99.90;;;;;;4968588;28;20179;-85
2022/12/07 10:22:38;;;;;;;1.80;1.67;;;;;;;;;;4968887;28;20207;-85
2022/12/07 10:25:20;;;;;;;10.40;4.03;;;1.30;99.90;;;;;;4950891;28;20241;-84
2022/12/07 10:27:59;;;;;;;4.57;2.67;;;1.40;99.90;;;;;;4967777;28;20185;-85
2022/12/07 10:30:25;;;;;;;2.07;1.73;;;;;;;;;;4967897;28;20658;-84
2022/12/07 10:32:50;;;;;;;3.27;2.90;;;1.40;99.90;;;;;;4950919;28;20206;-84
2022/12/07 10:35:26;;;;;;;2.37;2.20;;;1.90;99.90;;;;;;4950230;28;20282;-84
2022/12/07 10:37:54;;;;;;;4.63;3.10;;;1.40;99.90;;;;;;4961387;28;20180;-85
2022/12/07 10:40:35;;;;;;;2.30;2.10;;;3.30;99.90;;;;;;4942314;29;20193;-85
2022/12/07 10:43:06;;;;;;;3.27;2.83;;;1.40;99.90;;;;;;4959538;29;20242;-84
2022/12/07 10:45:34;;;;;;;1.13;1.13;;;1.40;99.90;;;;;;4959765;28;20172;-84
2022/12/07 10:48:32;;;;;;;1.43;1.37;;;3.90;99.90;;;;;;4967175;28;20656;-83
2022/12/07 10:51:04;;;;;;;2.00;1.90;;;4.10;99.90;;;;;;4966895;28;20177;-84
2022/12/07 10:53:52;;;;;;;1.27;1.27;;;1.40;99.90;;;;;;4949337;28;20625;-84
2022/12/07 10:56:21;;;;;;;6.27;1.93;;;1.40;99.90;;;;;;4956003;28;20598;-83
2022/12/07 10:59:14;;;;;;;1.50;1.40;;;1.50;99.90;;;;;;4939383;29;20546;-84
2022/12/07 11:01:59;;;;;;;2.73;1.90;;;1.50;99.90;;;;;;4955826;28;20238;-84
2022/12/07 11:04:51;;;;;;;1.70;1.60;;;2.80;99.90;;;;;;4949753;28;20199;-84
2022/12/07 11:07:17;;;;;;;3.37;2.57;;;;;;;;;;4966381;28;20171;-84
2022/12/07 11:10:17;;;;;;;2.47;2.07;;;1.50;99.90;;;;;;4958179;28;20226;-85
2022/12/07 11:13:21;;;;;;;1.17;1.17;;;1.50;99.90;;;;;;4949154;28;20179;-85
2022/12/07 11:16:13;;;;;;;2.00;1.17;;;1.50;99.90;;;;;;4938804;28;20550;-84
2022/12/07 11:19:07;;;;;;;3.73;2.80;;;2.60;99.90;;;;;;4975652;28;20629;-84
2022/12/07 11:21:41;;;;;;;1.27;1.17;;;1.50;99.90;;;;;;4975759;28;20194;-84
2022/12/07 11:24:18;;;;;;;1.50;1.50;;;2.10;99.90;;;;;;4960665;28;20190;-84
2022/12/07 11:27:21;;;;;;;2.00;1.90;;;1.50;99.90;;;;;;4965306;28;20254;-83
2022/12/07 11:30:01;;;;;;;1.07;1.03;;;1.50;99.90;;;;;;4982246;28;20244;-84
2022/12/07 11:33:00;;;;;;;3.13;2.10;;;1.50;99.90;;;;;;4947036;28;20196;-84
2022/12/07 11:36:04;;;;;;;7.00;2.83;;;1.50;99.90;;;;;;4964452;28;20203;-84
2022/12/07 11:38:53;;;;;;;1.10;1.10;;;1.50;99.90;;;;;;4878504;29;20189;-84
2022/12/07 11:41:34;;;;;;;4.73;3.17;;;1.60;99.90;;;;;;4949852;28;20234;-83
2022/12/07 11:44:22;;;;;;;5.77;3.20;;;1.60;99.90;;;;;;4974069;28;20174;-83
2022/12/07 11:47:00;;;;;;;3.40;2.80;;;1.60;99.90;;;;;;4968560;28;20172;-83
2022/12/07 11:49:51;;;;;;;1.60;1.50;;;1.50;99.90;;;;;;4975298;28;20167;-83
2022/12/07 11:52:39;;;;;;;2.00;1.87;;;3.40;99.90;;;;;;4963393;28;20187;-83
2022/12/07 11:55:36;;;;;;;4.27;2.00;;;1.60;99.90;;;;;;4965632;28;20275;-84
2022/12/07 11:58:12;;;;;;;1.90;1.80;;;1.60;99.90;;;;;;4924846;28;20184;-84
2022/12/07 12:00:38;;;;;;;2.43;2.03;;;1.60;99.90;;;;;;4960271;28;20171;-84
2022/12/07 12:03:15;;;;;;;2.53;1.70;;;1.50;99.90;;;;;;4970935;28;20196;-83
2022/12/07 12:05:41;;;;;;;2.33;2.10;;;1.50;99.90;;;;;;4962167;28;20202;-84
2022/12/07 12:08:26;;;;;;;3.13;2.13;;;1.50;99.90;;;;;;4964073;28;20696;-83
2022/12/07 12:11:31;;;;;;;3.87;1.53;;;1.90;99.90;;;;;;4971964;28;20189;-84
2022/12/07 12:14:24;;;;;;;3.83;2.23;;;1.50;99.90;;;;;;4912501;28;20195;-83
2022/12/07 12:17:11;;;;;;;2.37;2.23;;;1.60;99.90;;;;;;4965516;28;20184;-84
2022/12/07 12:19:59;;;;;;;3.03;1.57;;;1.70;99.90;;;;;;4946721;28;20238;-84
2022/12/07 12:22:37;;;;;;;1.47;1.40;;;1.60;99.90;;;;;;4923435;28;20233;-83
2022/12/07 12:25:06;;;;;;;1.77;1.63;;;1.60;99.90;;;;;;4964827;28;20174;-84
2022/12/07 12:27:35;;;;;;;2.33;2.23;;;1.60;99.90;;;;;;4963854;28;20231;-84
2022/12/07 12:30:24;;;;;;;3.50;2.70;;;1.60;99.90;;;;;;4964439;28;20175;-83
2022/12/07 12:32:50;;;;;;;1.90;1.77;;;;;;;;;;4965062;28;20182;-84
2022/12/07 12:35:26;;;;;;;3.30;2.27;;;1.60;99.90;;;;;;4963551;28;20183;-84
2022/12/07 12:37:53;;;;;;;1.73;1.63;;;1.50;99.90;;;;;;4963932;28;20303;-84
2022/12/07 12:40:31;;;;;;;2.60;2.40;;;1.50;99.90;;;;;;4963523;28;20254;-84
2022/12/07 12:42:58;;;;;;;4.93;2.23;;;1.50;99.90;;;;;;4948400;28;20187;-82
2022/12/07 12:45:24;;;;;;;2.87;2.67;;;1.50;99.90;;;;;;4948678;28;20266;-84
2022/12/07 12:48:00;;;;;;;2.30;2.10;;;1.50;99.90;;;;;;4945092;28;20191;-83
2022/12/07 12:50:29;;;;;;;2.83;2.50;;;1.50;99.90;;;;;;4965976;28;20181;-84
2022/12/07 12:52:59;;;;;;;2.30;2.13;;;1.50;99.90;;;;;;4963513;28;20257;-84
2022/12/07 12:55:53;;;;;;;2.03;1.90;;;1.70;99.90;;;;;;4947714;28;20271;-83
2022/12/07 12:58:19;;;;;;;1.93;1.83;;;1.50;99.90;;;;;;4952021;28;20261;-84
2022/12/07 13:00:46;;;;;;;3.43;2.00;;;1.70;99.90;;;;;;4972111;28;20294;-84
2022/12/07 13:03:28;;;;;;;2.80;1.80;;;1.60;99.90;;;;;;4972350;28;20190;-84
2022/12/07 13:06:17;;;;;;;2.60;2.00;;;1.60;99.90;;;;;;4971443;28;20287;-84
2022/12/07 13:08:42;;;;;;;4.80;1.40;;;1.70;99.90;;;;;;4951505;28;20206;-84
2022/12/07 13:11:30;;;;;;;4.00;2.73;;;1.70;99.90;;;;;;4965687;28;20420;-84
2022/12/07 13:14:34;;;;;;;2.20;2.10;;;2.30;99.90;;;;;;4967576;28;20172;-83
2022/12/07 13:16:59;;;;;;;2.50;2.30;;;1.70;99.90;;;;;;4955142;28;20202;-84
2022/12/07 13:19:43;;;;;;;3.43;1.87;;;2.20;99.90;;;;;;4950160;28;20645;-84
2022/12/07 13:22:31;;;;;;;3.80;2.13;;;1.60;99.90;;;;;;4967007;28;20207;-85
2022/12/07 13:25:25;;;;;;;1.50;1.40;;;1.60;99.90;;;;;;4945718;28;20194;-84
2022/12/07 13:27:59;;;;;;;2.80;2.40;;;1.60;99.90;;;;;;4934277;28;20338;-86
2022/12/07 13:30:25;;;;;;;1.00;1.00;;;1.60;99.90;;;;;;4950488;28;20193;-84
2022/12/07 13:32:54;;;;;;;1.30;1.23;;;2.90;99.90;;;;;;4952326;28;20222;-85